Agustin Olivera

Chefscout - Liverpool Montevideo
23 Apr 2028
Sonntag
Verarbeitung

Persönlichkeit

Anpassungsfähigkeit (20) Ehrgeiz (1) Kontroverse (8) Loyalität (15) Druck (6) Professionalität (8) Fairness (10) Temperament (9)

Profil

Trainerstil Demokratisch
Lizenz Nationale B
Entschlossenheit 6
Menschenführung 7
Motivation 6
Disziplin 8
Arbeitszufriedenheit
100%
Ermüdung
0%
Rolle Chefscout
Gehalt 35.9K p/W
Vertrag 14.03.2029

Leistung

Verhalten Gut
Trainingseffektivität
43%
Spielerentwicklung
25%
Verletzungsprävention
50%
Taktische Umsetzung
40%

Letzte Ereignisse

Nahm an einer Scouting-Besprechung teil jetzt
Empfahl ein Transferziel jetzt
Empfahl ein Transferziel jetzt
Empfahl ein Transferziel jetzt
Empfahl ein Transferziel jetzt
Empfahl ein Transferziel jetzt
Spieler begutachtet jetzt
Spieler begutachtet jetzt

Aktuell beobachtet

146
Spieler Verein Status Fähigkeit Vertrauen Beobachtet Zuletzt beobachtet Letzte Stimme
Celías Ingenthron Platense Aktiv 120 / 127 40% 2 22.04.2028 -
Bongani Jali Free State Stars Aktiv 109 / 97 40% 1 22.04.2028 -
Josh Nichols Oldham Athletic Aktiv 133 / 120 40% 4 21.04.2028 -
Christos Mouzakitis Hull City Aktiv 135 / 142 40% 2 21.04.2028 -
Bernardo Lima Porto Aktiv 111 / 119 40% 2 20.04.2028 -
Gael Moreno Morelia Aktiv 75 / 71 40% 1 20.04.2028 -
Chris Rigg Sunderland Aktiv 127 / 145 40% 1 19.04.2028 -
Mattia Puzone Siracusa Aktiv 90 / 113 40% 2 17.04.2028 -
Germán Barbas Burgos Aktiv 105 / 129 40% 1 17.04.2028 -
Giovanni Leoni Lincoln City Aktiv 143 / 143 40% 1 16.04.2028 -
Matvey Bardachev Zenit Aktiv 120 / 117 40% 1 15.04.2028 -
Jorge Moreno Athletic Bilbao Aktiv 137 / 129 40% 2 14.04.2028 -
Josh Acheampong Everton Aktiv 132 / 141 40% 2 14.04.2028 -
Finn Jeltsch VfB Stuttgart Aktiv 149 / 137 40% 2 12.04.2028 -
Alejandro Almaraz NK Celje Aktiv 116 / 123 40% 1 10.04.2028 -
Martim Cunha Porto Aktiv 113 / 114 40% 1 08.04.2028 -
Josh King Newcastle United Aktiv 150 / 144 40% 3 06.04.2028 -
Daniel Banjaqui Benfica Aktiv 126 / 123 40% 1 06.04.2028 -
Kiani Inge Groningen Aktiv 103 / 117 40% 1 05.04.2028 -
Tyler Fletcher Rotherham United Aktiv 113 / 115 40% 1 03.04.2028 -
Dmitry Pestryakov Krasnodar Aktiv 111 / 116 40% 1 07.03.2028 -
Riquelme Thompson-Jones Accrington Stanley Aktiv 104 / 124 40% 1 09.02.2028 -
Nahuel Leivas Montevideo City Torque Aktiv 97 / 108 40% 1 07.02.2028 -
Mao Hosoya Santos Aktiv 134 / 135 67% 1 20.12.2027 Befürworten
Douglas Jardel Tacuarembo Aktiv 106 / 110 62% 1 20.12.2027 Befürworten
Colin Guske Orlando City Aktiv 95 / 104 40% 1 30.11.2027 -
Milan van Ewijk Coventry City Aktiv 139 / 130 40% 6 30.05.2027 -
Toby Collyer West Bromwich Albion Aktiv 131 / 133 40% 1 30.05.2027 -
Lee Buchanan Sheffield Wednesday Aktiv 129 / 131 40% 3 29.05.2027 -
Will Fish Cardiff City Aktiv 109 / 117 40% 2 28.05.2027 -
Brodie Spencer Oxford United Aktiv 113 / 132 40% 1 28.05.2027 -
Jack MacKenzie Plymouth Argyle Aktiv 111 / 103 40% 2 26.05.2027 -
Pablo García Gijón Aktiv 107 / 100 40% 2 26.05.2027 -
Aaron Morley Wycombe Wanderers Aktiv 115 / 121 40% 1 20.05.2027 -
Jacques Ekomié Wrexham Aktiv 118 / 140 40% 2 18.05.2027 -
Luke McNally Bristol City Aktiv 126 / 136 40% 4 18.05.2027 -
Ethan Galbraith Swansea City Aktiv 120 / 130 40% 1 16.05.2027 -
Bosun Lawal Stoke City Aktiv 115 / 125 40% 4 15.05.2027 -
Florentino Luís Ipswich Town Aktiv 147 / 144 40% 4 15.05.2027 -
Lewis Ferguson Bologna Aktiv 131 / 148 40% 1 13.05.2027 -
Harvey White Stevenage Aktiv 119 / 107 40% 1 13.05.2027 -
Harry Clarke Preston Aktiv 135 / 133 40% 1 12.05.2027 -
Andrea Carboni Monza Aktiv 136 / 125 40% 1 08.05.2027 -
Ethan Pye Stockport County Aktiv 114 / 128 40% 3 07.05.2027 -
Adrián Bernabé Parma Aktiv 127 / 148 40% 1 02.05.2027 -
Dennis Cirkin Queens Park Rangers Aktiv 140 / 120 40% 3 01.05.2027 -
Idris El Mizouni Leyton Orient Aktiv 126 / 116 40% 1 01.05.2027 -
Habib Diarra Sunderland Aktiv 152 / 146 40% 1 29.04.2027 -
Joel Bagan Cardiff City Aktiv 123 / 115 40% 3 28.04.2027 -
Derry Murkin Derby County Aktiv 122 / 119 40% 2 25.04.2027 -
Mitchel Bakker Modena Aktiv 143 / 118 40% 1 22.04.2027 -
Max Bird Birmingham Aktiv 133 / 121 40% 2 18.04.2027 -
Jack Currie Oxford United Aktiv 114 / 117 40% 1 18.04.2027 -
Brian De Keersmaecker Oxford United Aktiv 123 / 115 40% 1 16.04.2027 -
Hector Kyprianou Watford Aktiv 115 / 128 40% 1 16.04.2027 -
Lucas Da Cunha Como Aktiv 135 / 141 40% 2 15.04.2027 -
Ronnie Edwards Queens Park Rangers Aktiv 127 / 130 40% 1 13.04.2027 -
Oliver Skipp Leicester City Aktiv 121 / 137 40% 3 10.04.2027 -
Josh Tymon Swansea City Aktiv 126 / 130 40% 1 10.04.2027 -
Jacob Greaves Ipswich Town Aktiv 143 / 142 40% 4 05.04.2027 -
Nobel Mendy Hull City Aktiv 130 / 129 40% 2 05.04.2027 -
Brooke Norton-Cuffy Hull City Aktiv 139 / 138 40% 4 02.04.2027 -
Nathan Moriah-Welsh Mansfield Town Aktiv 102 / 114 40% 1 02.04.2027 -
Nadir Zortea Bologna Aktiv 125 / 128 40% 2 01.04.2027 -
Alfie Devine Preston Aktiv 128 / 118 40% 1 01.04.2027 -
Lewis Gibson Preston Aktiv 116 / 124 40% 2 27.03.2027 -
Edoardo Bove Watford Aktiv 116 / 141 40% 2 23.03.2027 -
Darlin Yongwa Norwich City Aktiv 117 / 116 40% 3 20.03.2027 -
Georgie Gent Barnsley Aktiv 96 / 108 40% 3 15.03.2027 -
Jonathan Varane Queens Park Rangers Aktiv 141 / 122 40% 3 14.03.2027 -
Aidan Morris Middlesbrough Aktiv 129 / 122 40% 1 11.03.2027 -
Welington Southampton Aktiv 121 / 129 40% 1 10.03.2027 -
Harrison Burrows Sheffield United Aktiv 125 / 126 40% 1 03.03.2027 -
Ivan Giraldo Valencia Aktiv 127 / 124 40% 1 26.02.2027 -
Max Johnston Derby County Aktiv 125 / 126 40% 2 23.02.2027 -
Tariq Lamptey Queens Park Rangers Aktiv 140 / 132 40% 1 20.02.2027 -
Shea Charles Southampton Aktiv 149 / 135 40% 1 18.02.2027 -
Alfie Gilchrist West Bromwich Albion Aktiv 128 / 124 40% 2 16.02.2027 -
Japhet Tanganga Sheffield United Aktiv 144 / 120 40% 1 16.02.2027 -
Álex Centelles Levski Aktiv 135 / 114 40% 1 11.02.2027 -
Kristoffer Lund Birmingham Aktiv 137 / 125 40% 1 08.02.2027 -
Aldair Faustino Levski Aktiv 123 / 108 40% 1 07.02.2027 -
Brooklyn Poggenpoel Maritzburg United Aktiv 94 / 107 40% 1 05.02.2027 -
Caspar Jander Southampton Aktiv 141 / 130 40% 1 03.02.2027 -
Agustín Pérez Juventud Aktiv 81 / 97 62% 1 21.12.2026 Befürworten
Ángel Maciel Tacuarembo Aktiv 109 / 109 62% 1 14.12.2026 Befürworten
Sampson Dweh Mallorca Verhandlung 133 / 134 66% 1 01.12.2026 Befürworten
Amar Memić Viktoria Plzen Aktiv 121 / 127 40% 1 28.11.2026 -
David Turnbull Cardiff City Aktiv 109 / 112 40% 1 27.11.2026 -
Matthias Seidl Rapid Wien Aktiv 128 / 118 40% 1 27.11.2026 -
Thomas Carrique Andorra Aktiv 120 / 115 40% 2 26.11.2026 -
Fiete Arp OB Aktiv 143 / 120 40% 1 26.11.2026 -
Oswin Appollis Orlando Pirates Aktiv 123 / 111 40% 2 25.11.2026 -
Bongani Zungu Ajax Cape Town Aktiv 130 / 127 40% 2 22.11.2026 -
Álex Berenguer Lokomotiv Moscow Aktiv 160 / 153 40% 1 21.11.2026 -
Brian Orosco Godoy Cruz Aktiv 109 / 113 40% 1 21.11.2026 -
Mariano Bracamonte Deportivo Riestra Aktiv 124 / 114 40% 3 20.11.2026 -
Gorka Gorosabel Real Sociedad Aktiv 98 / 107 40% 1 20.11.2026 -
Themba Williams Ajax Cape Town Aktiv 121 / 128 40% 3 19.11.2026 -
Petar Stanić Ludogorets Aktiv 131 / 136 40% 2 15.11.2026 -
Jordan Lotomba Bloemfontein Celtic Aktiv 135 / 135 40% 2 14.11.2026 -
Marcelo Allende Mamelodi Sundowns Aktiv 130 / 139 40% 1 14.11.2026 -
Juan Pablo Gallego Fehervar Aktiv 98 / 110 40% 1 13.11.2026 -
Edu Expósito Espanyol Aktiv 150 / 127 40% 2 12.11.2026 -
Teboho Mokoena Mamelodi Sundowns Aktiv 149 / 142 40% 2 10.11.2026 -
José Bernal Ethnikos Achnas Aktiv 108 / 105 40% 1 08.11.2026 -
Alexey Miranchuk Atlanta United FC Aktiv 156 / 131 40% 1 04.11.2026 -
Adu Ares Eibar Aktiv 130 / 116 40% 2 01.11.2026 -
Matías Pellegrini Vélez Aktiv 120 / 123 40% 1 01.11.2026 -
Diego Luna Real Salt Lake Aktiv 135 / 131 40% 1 31.10.2026 -
Cheikh Sabaly Vancouver Whitecaps Aktiv 113 / 120 40% 1 28.10.2026 -
Santiago Toloza O'Higgins Aktiv 114 / 124 40% 1 27.10.2026 -
Bradley Zwane SuperSport United Aktiv 119 / 105 40% 1 27.10.2026 -
Paxten Aaronson Colorado Rapids Aktiv 134 / 137 40% 1 18.10.2026 -
Amin Boudri Los Angeles Football Club Aktiv 114 / 115 40% 2 15.10.2026 -
Iván Angulo Orlando City Aktiv 129 / 128 40% 1 15.10.2026 -
Manu Morlanes Mallorca Aktiv 131 / 135 40% 1 14.10.2026 -
Elias Achouri San Diego Football Club Aktiv 131 / 121 40% 1 13.10.2026 -
Djordje Mihailović Toronto FC Aktiv 123 / 133 40% 1 12.10.2026 -
Conrad Wallem Djurgarden Aktiv 140 / 117 40% 1 08.10.2026 -
Gaspar Duarte Rosario Central Aktiv 111 / 113 40% 1 08.10.2026 -
Joaquín Pereyra Minnesota United FC Aktiv 136 / 140 40% 1 07.10.2026 -
Alejandro Pozo Standard Liege Aktiv 115 / 115 40% 1 06.10.2026 -
Kenji Cabrera Vancouver Whitecaps Aktiv 117 / 127 40% 1 05.10.2026 -
Luis Pavez Muñoz O'Higgins Aktiv 120 / 122 40% 1 09.09.2026 -
Christian Rivera Pachuca Aktiv 117 / 119 40% 1 08.09.2026 -
Richard Ledezma Guadalajara Aktiv 122 / 143 40% 1 07.09.2026 -
Sebastián Guzmán Deportes Tolima Aktiv 117 / 117 40% 1 26.08.2026 -
Fidel Ambríz Monterrey Aktiv 116 / 140 40% 1 26.08.2026 -
Enzo Giménez Queretaro Aktiv 130 / 117 40% 1 24.08.2026 -
Dylan Lozano Aguilas Doradas Aktiv 102 / 106 40% 1 21.08.2026 -
Ramiro Ruiz Rodríguez Atlético Tucumán Aktiv 118 / 124 40% 1 19.08.2026 -
Jeremy Márquez Cruz Azul Aktiv 134 / 130 40% 1 19.08.2026 -
José David Ramírez Leon Aktiv 103 / 111 40% 1 18.08.2026 -
Angel Zamudio Sport Huancayo Aktiv 112 / 116 40% 1 07.08.2026 -
Carlos Moreno Pachuca Aktiv 116 / 133 40% 1 07.08.2026 -
Matías Dufour Sportivo Trinidense Aktiv 109 / 113 40% 1 05.08.2026 -
Gonzalo Falcón Cienciano Aktiv 116 / 112 40% 1 05.08.2026 -
Beycker Velásquez Zamora Aktiv 97 / 96 40% 1 04.08.2026 -
Jorge Hernández Tijuana Aktiv 126 / 111 40% 1 04.08.2026 -
Facundo Miño Deportivo Riestra Aktiv 117 / 115 40% 1 03.08.2026 -
James Bacca La Equidad Aktiv 126 / 126 40% 1 03.08.2026 -
Lautaro Ríos Banfield Aktiv 117 / 121 40% 1 02.08.2026 -
Pablo Tomeo Valladolid Aktiv 113 / 110 40% 1 02.08.2026 -
Bautista Barros Schelotto Gimnasia La Plata Aktiv 109 / 109 40% 1 01.08.2026 -
Juan Cruz Komar Rosario Central Aktiv 122 / 121 40% 1 01.08.2026 -